Relevés horaires Beauvechain (Belgique)


Relevés horaires à Beauvechain - Mercredi 18 Juill. 2018
Heure UTC1 Température [°C] Vent [km/h] Hum. [%] Pres.4 [hPa] Visi. [Km] Nébu. [octa] Préc.5 [mm] Cond.
2m. Res. Ros. Dir.2 Vit. Moy. Raf.3
23:00 16.8 16.8 10.7 NNO 1.9 -- 5.6 67 1019.6(0.8/3h) 20 -- -- --
22:00 17.0 17.0 11.0 N 3.7 -- 7.4 68 1019.5(0.9/3h) 20 -- -- --
21:00 18.3 18.3 11.3 NNO 3.7 -- 11.1 64 1019.2(0.9/3h) 20 -- -- --
20:00 19.6 19.6 11.5 N 5.6 -- 9.3 59 1018.6(0.5/3h) 20 -- -- --
19:00 22.2 22.2 10.3 NNO 3.7 -- 9.3 47 1018.2(0.0/3h) 20 -- -- --
18:00 23.8 23.8 9.6 NNO 5.6 -- 13.0 41 1017.8(-0.3/3h) 20 -- -- --
17:00 24.3 24.3 9.5 NO 5.6 -- 11.1 39 1017.7(-0.6/3h) 20 -- -- --
16:00 24.4 24.4 8.6 NNO 3.7 -- 11.1 37 1018.1(-0.5/3h) 20 3/8 -- --
15:00 24.9 24.9 8.2 N 3.7 -- 13.0 35 1018.2(-0.5/3h) 20 2/8 -- --
14:00 24.8 24.8 8.6 OSO 5.6 -- 13.0 36 1018.5(-0.4/3h) 20 2/8 -- --
13:00 23.7 23.7 7.8 O 5.6 -- 11.1 36 1018.7(-0.2/3h) 20 2/8 -- --
12:00 23.3 23.3 7.4 ONO 5.6 -- 14.8 36 1018.7(-0.3/3h) 20 2/8 -- --
11:00 23.3 23.3 8.8 OSO 5.6 -- 14.8 40 1019(-0.2/3h) 20 3/8 -- --
10:00 22.4 22.4 8.4 O 7.4 -- 13.0 41 1019.1(-0.2/3h) 20 3/8 -- --
09:00 21.6 21.6 9.2 OSO 3.7 -- 9.3 45 1019.2(0.2/3h) 20 3/8 -- --
08:00 20.1 20.1 9.8 NNO 1.9 -- 5.6 51 1019.5(0.5/3h) 20 3/8 -- --
07:00 17.1 17.1 10.1 NNO 1.9 -- 3.7 63 1019.6(0.5/3h) 20 3/8 -- --
06:00 15.1 15.1 10.5 NNO 1.9 -- 3.7 74 1019.3(0.3/3h) 20 2/8 -- --
05:00 14.0 14.0 9.0 NNO 1.9 -- 1.9 72 1019.2(0.1/3h) 20 3/8 -- --
04:00 13.9 13.9 8.6 NNO 0.0 -- 1.9 70 1019.2(0.0/3h) 20 -- -- --
03:00 12.3 12.3 8.6 NNO 1.9 -- 1.9 78 1019.2(0.0/3h) 20 -- -- --
02:00 15.1 15.1 8.8 NNO 1.9 -- 1.9 66 1019.1(0.0/3h) 20 -- -- --
01:00 15.7 15.7 9.0 NNO 1.9 -- 1.9 64 1019(0.1/3h) 20 -- -- --
00:00 16.0 16.0 9.0 NNO 1.9 -- 9.3 63 1019(0.4/3h) 20 -- -- --

1 Coordinated Universal Time. Actuellement il est 11:00 locale et 09:00 UTC.

2 Le vent souffle depuis la direction indiquée vers la direction oposée.

3 Les rafales max. sont disponible 40 min après l'heure du relevé.

4 Pour les stations d'altitude (plus de 600m) le géopotentiel du niveau le plus proche de la pression obligatoire est indiqué.

5 Les stations disposant d'un diffuseur peuvent indiquer "trace". Cela signifie que des précipitations ont touchés le sol mais que la quantité est inférieure à 0.1 mm.

Récapitulatif de la journée
Température [°C] Vent [km/h] Ensoleillement4 [h] Precipitations totale5 [mm] Pression [Hpa]
Min1 Max.2 Moy.3 Max. Min Max.
11.9 25.8 0 14.8 0 h 0 min 0 1017.7 1019.6

1 Température minimale relevée entre 18:00 UTC la veille et 18:00 UTC le jour donné.

2 Température maximale relevée entre 06:00 UTC le jour donné et 06:00 UTC le lendemain.

3 Vent moyen de la journée basé sur les relevés horaires.

4 Ensoleillement en heures relevé entre 06:00 UTC la veille et 06:00 UTC le jour donné.

5 Précipitations totales tombées entre 06:00 UTC la jour donné et 06:00 UTC le lendemain.

Graphiques horaires